Time;durP1;ratioP1;P1;durP2;ratioP2;P2;SDS_P1;SDS_P2;PMS_P1;PMS_P2;Temp;Humidity;BMP_temperature;BMP_pressure;BME280_temperature;BME280_humidity;BME280_pressure;Samples;Min_cycle;Max_cycle;Signal;HPM_P1;HPM_P2
2023/03/11 00:02:03;;;;;;;;;;;18.80;74.30;;;;;;5054219;28;42941;-83
2023/03/11 00:04:28;;;;;;;;;;;18.80;74.30;;;;;;5052188;28;43020;-84
2023/03/11 00:06:54;;;;;;;;;;;18.80;73.90;;;;;;5055187;28;43036;-80
2023/03/11 00:09:19;;;;;;;;;;;18.70;74.40;;;;;;5054884;28;43111;-81
2023/03/11 00:11:45;;;;;;;;;;;18.60;74.40;;;;;;5053443;28;42871;-80
2023/03/11 00:14:10;;;;;;;;;;;18.80;73.90;;;;;;5054102;28;42891;-86
2023/03/11 00:16:36;;;;;;;;;;;18.80;74.80;;;;;;5053212;28;43094;-84
2023/03/11 00:19:01;;;;;;;;;;;18.70;74.60;;;;;;5053834;28;43796;-85
2023/03/11 00:21:27;;;;;;;;;;;18.80;74.60;;;;;;5052653;28;42933;-83
2023/03/11 00:23:52;;;;;;;;;;;18.70;74.60;;;;;;5055423;28;43072;-81
2023/03/11 00:26:18;;;;;;;;;;;18.70;74.60;;;;;;5051351;28;43418;-82
2023/03/11 00:28:43;;;;;;;;;;;18.80;74.50;;;;;;5053784;28;43661;-80
2023/03/11 00:31:10;;;;;;;;;;;18.70;74.80;;;;;;5052599;28;42978;-85
2023/03/11 00:33:36;;;;;;;;;;;18.80;75.10;;;;;;5054044;28;43473;-80
2023/03/11 00:36:02;;;;;;;;;;;18.70;74.80;;;;;;5054346;28;42965;-81
2023/03/11 00:38:28;;;;;;;;;;;18.70;74.60;;;;;;5052804;28;42823;-84
2023/03/11 00:40:53;;;;;;;;;;;18.70;74.70;;;;;;5054719;28;42899;-81
2023/03/11 00:43:19;;;;;;;;;;;18.50;74.60;;;;;;5053717;28;43425;-80
2023/03/11 00:45:44;;;;;;;;;;;18.70;74.80;;;;;;5035189;28;43014;-80
2023/03/11 00:48:10;;;;;;;;;;;18.50;74.60;;;;;;5051355;28;43493;-80
2023/03/11 00:50:36;;;;;;;;;;;18.80;74.80;;;;;;5044660;28;42725;-82
2023/03/11 00:53:03;;;;;;;;;;;18.60;74.80;;;;;;5044670;28;43227;-79
2023/03/11 00:55:29;;;;;;;;;;;18.50;74.80;;;;;;5044972;28;43067;-86
2023/03/11 00:57:57;;;;;;;;;;;18.60;74.90;;;;;;5043707;28;42919;-80
2023/03/11 01:00:23;;;;;;;;;;;18.50;74.70;;;;;;5044295;28;42977;-80
2023/03/11 01:02:49;;;;;;;;;;;19.00;75.00;;;;;;5043703;28;42997;-81
2023/03/11 01:05:16;;;;;;;;;;;18.60;74.80;;;;;;5043825;28;42861;-80
2023/03/11 01:07:42;;;;;;;;;;;18.70;74.90;;;;;;5044681;28;43495;-79
2023/03/11 01:10:08;;;;;;;;;;;18.60;75.00;;;;;;5044469;28;42966;-80
2023/03/11 01:12:33;;;;;;;;;;;18.30;74.10;;;;;;5042958;28;43415;-80
2023/03/11 01:14:59;;;;;;;;;;;18.50;74.80;;;;;;5044344;28;42971;-82
2023/03/11 01:17:25;;;;;;;;;;;18.80;75.00;;;;;;5043504;28;42955;-80
2023/03/11 01:19:50;;;;;;;;;;;18.50;74.10;;;;;;5044518;28;43031;-81
2023/03/11 01:22:16;;;;;;;;;;;18.60;74.90;;;;;;5044038;28;42857;-80
2023/03/11 01:24:41;;;;;;;;;;;18.70;74.90;;;;;;5044137;28;43070;-80
2023/03/11 01:27:07;;;;;;;;;;;18.70;75.00;;;;;;5043583;28;43200;-79
2023/03/11 01:29:33;;;;;;;;;;;18.60;75.00;;;;;;5043364;28;42934;-80
2023/03/11 01:31:58;;;;;;;;;;;18.60;75.10;;;;;;5043622;28;43874;-82
2023/03/11 01:34:24;;;;;;;;;;;18.50;74.90;;;;;;5043860;28;42856;-81
2023/03/11 01:36:49;;;;;;;;;;;18.60;75.00;;;;;;5043917;28;43022;-82
2023/03/11 01:39:15;;;;;;;;;;;18.70;75.00;;;;;;5044071;28;42966;-84
2023/03/11 01:41:40;;;;;;;;;;;18.60;75.00;;;;;;5044475;28;43480;-83
2023/03/11 01:44:06;;;;;;;;;;;18.50;75.00;;;;;;5044554;28;42972;-80
2023/03/11 01:46:50;;;;;;;;;;;18.60;75.10;;;;;;5043113;28;42993;-83
2023/03/11 01:49:16;;;;;;;;;;;19.00;74.10;;;;;;5037978;28;43118;-84
2023/03/11 01:51:42;;;;;;;;;;;18.70;75.20;;;;;;5030529;28;43731;-81
2023/03/11 01:54:10;;;;;;;;;;;18.60;75.10;;;;;;5038856;28;42982;-78
2023/03/11 01:56:37;;;;;;;;;;;18.50;75.10;;;;;;5053846;28;42903;-81
2023/03/11 01:59:04;;;;;;;;;;;18.60;75.00;;;;;;5054515;28;43987;-79
2023/03/11 02:01:30;;;;;;;;;;;18.90;75.30;;;;;;5045299;28;43873;-80
2023/03/11 02:03:56;;;;;;;;;;;18.50;75.30;;;;;;5054326;28;43088;-79
2023/03/11 02:06:22;;;;;;;;;;;18.70;75.40;;;;;;5053419;28;43480;-80
2023/03/11 02:08:48;;;;;;;;;;;18.70;75.40;;;;;;5052966;28;43237;-79
2023/03/11 02:11:15;;;;;;;;;;;18.60;75.50;;;;;;5045203;28;42929;-94
2023/03/11 02:13:42;;;;;;;;;;;18.60;76.10;;;;;;5041405;28;43002;-81
2023/03/11 02:16:08;;;;;;;;;;;18.70;75.60;;;;;;5041980;28;43541;-81
2023/03/11 02:18:34;;;;;;;;;;;18.70;75.70;;;;;;5041976;28;42933;-82
2023/03/11 02:21:12;;;;;;;;;;;18.60;75.70;;;;;;5043405;28;43117;-79
2023/03/11 02:23:42;;;;;;;;;;;18.60;74.50;;;;;;5041874;28;43175;-80
2023/03/11 02:26:18;;;;;;;;;;;19.00;76.20;;;;;;5040489;28;42976;-80
2023/03/11 02:28:45;;;;;;;;;;;18.60;74.50;;;;;;5040294;28;43329;-78
2023/03/11 02:31:11;;;;;;;;;;;18.50;75.80;;;;;;5041681;28;44063;-84
2023/03/11 02:33:36;;;;;;;;;;;18.60;75.80;;;;;;5042498;28;42907;-79
2023/03/11 02:36:03;;;;;;;;;;;18.60;75.90;;;;;;5041531;28;42904;-80
2023/03/11 02:38:28;;;;;;;;;;;18.80;75.90;;;;;;5041513;28;42928;-81
2023/03/11 02:40:58;;;;;;;;;;;18.60;75.90;;;;;;5042782;28;42949;-81
2023/03/11 02:43:30;;;;;;;;;;;18.50;74.40;;;;;;5042647;28;42961;-79
2023/03/11 02:45:55;;;;;;;;;;;18.60;75.90;;;;;;5046105;28;42987;-80
2023/03/11 02:48:21;;;;;;;;;;;18.70;75.90;;;;;;5046612;28;43026;-80
2023/03/11 02:50:47;;;;;;;;;;;18.70;75.90;;;;;;5046438;28;43035;-81
2023/03/11 02:53:13;;;;;;;;;;;18.70;76.00;;;;;;5046299;28;43000;-80
2023/03/11 02:55:38;;;;;;;;;;;18.70;75.90;;;;;;5046612;28;42905;-82
2023/03/11 02:58:04;;;;;;;;;;;18.60;76.00;;;;;;5047269;28;43376;-80
2023/03/11 03:00:29;;;;;;;;;;;18.60;76.50;;;;;;5046408;28;42889;-81
2023/03/11 03:02:55;;;;;;;;;;;18.60;76.10;;;;;;5046472;28;42923;-80
2023/03/11 03:05:20;;;;;;;;;;;18.70;76.00;;;;;;5046476;28;43046;-80
2023/03/11 03:07:47;;;;;;;;;;;18.60;76.00;;;;;;5046823;28;43043;-81
2023/03/11 03:10:13;;;;;;;;;;;18.70;76.00;;;;;;5046309;28;43048;-80
2023/03/11 03:12:38;;;;;;;;;;;18.60;76.10;;;;;;5045917;28;42824;-85
2023/03/11 03:15:04;;;;;;;;;;;18.80;76.70;;;;;;5045810;28;43335;-81
2023/03/11 03:17:30;;;;;;;;;;;18.60;75.90;;;;;;5045248;28;42950;-86
2023/03/11 03:19:55;;;;;;;;;;;18.70;76.30;;;;;;5045716;28;43598;-81
2023/03/11 03:22:23;;;;;;;;;;;18.70;76.30;;;;;;5046419;28;42944;-80
2023/03/11 03:24:49;;;;;;;;;;;18.80;76.20;;;;;;5045830;28;42979;-90
2023/03/11 03:27:15;;;;;;;;;;;18.60;76.20;;;;;;5046574;28;42890;-91
2023/03/11 03:29:40;;;;;;;;;;;18.70;76.10;;;;;;5045211;28;42866;-89
2023/03/11 03:32:06;;;;;;;;;;;18.60;76.10;;;;;;5044921;28;43172;-90
2023/03/11 03:34:32;;;;;;;;;;;18.30;75.70;;;;;;5046562;28;43477;-90
2023/03/11 03:36:57;;;;;;;;;;;18.60;76.10;;;;;;5044956;28;42930;-87
2023/03/11 03:39:23;;;;;;;;;;;18.60;76.20;;;;;;5046607;28;43431;-93
2023/03/11 03:41:48;;;;;;;;;;;18.70;76.30;;;;;;5046494;28;42981;-94
2023/03/11 03:44:13;;;;;;;;;;;18.60;76.40;;;;;;5045875;28;42966;-95
2023/03/11 03:46:39;;;;;;;;;;;18.60;75.70;;;;;;5046759;28;42890;-94
2023/03/11 03:49:04;;;;;;;;;;;18.70;76.30;;;;;;5046584;28;43383;-90
2023/03/11 03:51:30;;;;;;;;;;;18.60;76.10;;;;;;5045411;28;42985;-88
2023/03/11 03:53:55;;;;;;;;;;;18.70;76.40;;;;;;5045258;28;43542;-95
2023/03/11 03:56:21;;;;;;;;;;;18.70;75.80;;;;;;5045854;28;42820;-91
2023/03/11 03:58:46;;;;;;;;;;;18.60;76.30;;;;;;5045915;28;42855;-91
2023/03/11 04:01:12;;;;;;;;;;;18.70;76.40;;;;;;5046337;28;42942;-93
2023/03/11 04:03:38;;;;;;;;;;;18.60;76.40;;;;;;5028209;28;43047;-92
2023/03/11 04:06:04;;;;;;;;;;;18.60;76.30;;;;;;5045956;28;42921;-92
2023/03/11 04:08:30;;;;;;;;;;;18.70;76.30;;;;;;5045203;28;43019;-85
2023/03/11 04:10:56;;;;;;;;;;;18.70;75.70;;;;;;5046358;28;42833;-91
2023/03/11 04:13:22;;;;;;;;;;;18.60;76.20;;;;;;5045798;28;44338;-86
2023/03/11 04:15:47;;;;;;;;;;;18.70;75.90;;;;;;5027347;28;42870;-94
2023/03/11 04:18:13;;;;;;;;;;;18.70;76.30;;;;;;5046585;28;43097;-89
2023/03/11 04:20:38;;;;;;;;;;;18.80;75.80;;;;;;5046862;28;42822;-87
2023/03/11 04:23:04;;;;;;;;;;;18.70;76.40;;;;;;5045024;28;43464;-87
2023/03/11 04:25:29;;;;;;;;;;;18.80;76.60;;;;;;5045959;28;42976;-90
2023/03/11 04:27:55;;;;;;;;;;;18.60;76.50;;;;;;5046824;28;43176;-92
2023/03/11 04:30:20;;;;;;;;;;;18.70;75.80;;;;;;5045543;28;42879;-96
2023/03/11 04:32:46;;;;;;;;;;;18.60;76.40;;;;;;5046661;28;43766;-95
2023/03/11 04:35:11;;;;;;;;;;;18.80;76.70;;;;;;5045817;28;42874;-94
2023/03/11 04:37:37;;;;;;;;;;;18.50;76.50;;;;;;5027217;28;43245;-86
2023/03/11 04:40:04;;;;;;;;;;;18.50;76.70;;;;;;5027053;28;43065;-85
2023/03/11 04:42:30;;;;;;;;;;;18.70;76.50;;;;;;5045563;28;43959;-95
2023/03/11 04:44:55;;;;;;;;;;;18.60;76.80;;;;;;5044553;28;42903;-84
2023/03/11 04:47:21;;;;;;;;;;;18.80;77.00;;;;;;5042767;28;42873;-83
2023/03/11 04:49:46;;;;;;;;;;;18.90;76.80;;;;;;5054126;28;42978;-91
2023/03/11 04:52:12;;;;;;;;;;;18.70;76.70;;;;;;5044376;28;43005;-85
2023/03/11 04:54:37;;;;;;;;;;;18.60;76.70;;;;;;5035336;28;42989;-91
2023/03/11 04:57:03;;;;;;;;;;;18.70;76.80;;;;;;5041336;28;42914;-91
2023/03/11 04:59:28;;;;;;;;;;;18.60;76.40;;;;;;5044568;28;42991;-94
2023/03/11 05:01:54;;;;;;;;;;;18.60;76.50;;;;;;5033860;28;43509;-90
2023/03/11 05:04:19;;;;;;;;;;;18.60;76.80;;;;;;5056748;28;42981;-92
2023/03/11 05:06:45;;;;;;;;;;;18.70;76.10;;;;;;5046668;28;43117;-89
2023/03/11 05:09:10;;;;;;;;;;;18.70;76.90;;;;;;5044547;28;42893;-92
2023/03/11 05:11:36;;;;;;;;;;;18.80;76.90;;;;;;5056933;28;43016;-90
2023/03/11 05:14:01;;;;;;;;;;;18.90;77.20;;;;;;5064143;28;43017;-80
2023/03/11 05:16:27;;;;;;;;;;;18.60;77.00;;;;;;5064349;28;44500;-80
2023/03/11 05:18:52;;;;;;;;;;;18.70;76.90;;;;;;5065010;28;42844;-80
2023/03/11 05:21:18;;;;;;;;;;;18.70;76.50;;;;;;5061297;28;43997;-87
2023/03/11 05:23:44;;;;;;;;;;;18.50;76.80;;;;;;5065103;28;42991;-81
2023/03/11 05:26:10;;;;;;;;;;;18.60;76.90;;;;;;5064784;28;43547;-94
2023/03/11 05:28:35;;;;;;;;;;;18.60;76.80;;;;;;5064679;28;42920;-92
2023/03/11 05:31:01;;;;;;;;;;;18.70;77.00;;;;;;5047239;28;43694;-93
2023/03/11 05:33:31;;;;;;;;;;;18.70;76.80;;;;;;5065349;28;42924;-82
2023/03/11 05:36:02;;;;;;;;;;;18.60;76.90;;;;;;5065753;28;42871;-85
2023/03/11 05:38:27;;;;;;;;;;;18.70;77.00;;;;;;5064989;28;42847;-82
2023/03/11 05:40:53;;;;;;;;;;;18.60;76.70;;;;;;5056965;28;43632;-84
2023/03/11 05:43:19;;;;;;;;;;;18.80;77.10;;;;;;5043351;28;42940;-81
2023/03/11 05:45:44;;;;;;;;;;;18.60;76.90;;;;;;5043447;28;43610;-80
2023/03/11 05:48:10;;;;;;;;;;;18.60;76.90;;;;;;5026770;28;42894;-93
2023/03/11 05:50:35;;;;;;;;;;;18.80;77.00;;;;;;5041684;28;43687;-93
2023/03/11 05:53:00;;;;;;;;;;;18.50;77.00;;;;;;5037354;28;42904;-94
2023/03/11 05:55:26;;;;;;;;;;;18.70;77.10;;;;;;5058524;28;43062;-94
2023/03/11 05:57:51;;;;;;;;;;;18.60;77.10;;;;;;5061286;28;42978;-92
2023/03/11 06:00:19;;;;;;;;;;;18.70;77.10;;;;;;5048840;28;42996;-93
2023/03/11 06:02:44;;;;;;;;;;;18.60;76.70;;;;;;5044381;28;42959;-89
2023/03/11 06:05:10;;;;;;;;;;;18.50;77.10;;;;;;5043729;28;43363;-89
2023/03/11 06:07:35;;;;;;;;;;;18.60;77.20;;;;;;5036448;28;43539;-91
2023/03/11 06:10:02;;;;;;;;;;;18.60;77.20;;;;;;5039904;28;42980;-92
2023/03/11 06:12:27;;;;;;;;;;;18.70;77.20;;;;;;5043705;28;42928;-87
2023/03/11 06:14:53;;;;;;;;;;;18.70;77.20;;;;;;5045243;28;44609;-85
2023/03/11 06:17:18;;;;;;;;;;;18.60;77.20;;;;;;5050726;28;42851;-86
2023/03/11 06:19:44;;;;;;;;;;;18.70;77.10;;;;;;5042859;28;42988;-82
2023/03/11 06:22:09;;;;;;;;;;;18.90;77.90;;;;;;5036328;28;42917;-82
2023/03/11 06:24:35;;;;;;;;;;;18.60;77.20;;;;;;5027235;28;43103;-80
2023/03/11 06:27:01;;;;;;;;;;;18.60;77.10;;;;;;5027770;28;42951;-81
2023/03/11 06:29:28;;;;;;;;;;;18.70;77.20;;;;;;5028671;28;44551;-81
2023/03/11 06:31:53;;;;;;;;;;;18.50;77.00;;;;;;5036698;28;43073;-82
2023/03/11 06:34:19;;;;;;;;;;;18.70;77.20;;;;;;5043051;28;42982;-83
2023/03/11 06:36:44;;;;;;;;;;;18.70;77.20;;;;;;5022102;28;43025;-80
2023/03/11 06:39:14;;;;;;;;;;;18.70;77.20;;;;;;5033625;28;42922;-85
2023/03/11 06:41:40;;;;;;;;;;;18.70;75.80;;;;;;5027205;28;42932;-86
2023/03/11 06:44:05;;;;;;;;;;;18.60;77.00;;;;;;5050722;28;43462;-84
2023/03/11 06:46:32;;;;;;;;;;;18.70;76.50;;;;;;5050101;28;42950;-80
2023/03/11 06:48:58;;;;;;;;;;;18.70;74.60;;;;;;5034024;28;43698;-86
2023/03/11 06:51:23;;;;;;;;;;;18.50;75.20;;;;;;5027433;28;42961;-90
2023/03/11 06:53:51;;;;;;;;;;;18.50;74.50;;;;;;5026427;28;42996;-80
2023/03/11 06:56:17;;;;;;;;;;;18.70;74.60;;;;;;5027308;28;42861;-82
2023/03/11 06:58:42;;;;;;;;;;;18.60;74.50;;;;;;5029105;28;44278;-85
2023/03/11 07:01:20;;;;;;;;;;;18.80;74.40;;;;;;5049356;28;43699;-82
2023/03/11 07:03:47;;;;;;;;;;;18.90;71.80;;;;;;5045977;28;42940;-84
2023/03/11 07:06:13;;;;;;;;;;;18.40;70.00;;;;;;5049185;28;42989;-80
2023/03/11 07:08:39;;;;;;;;;;;18.30;69.60;;;;;;5057665;28;43079;-82
2023/03/11 07:11:06;;;;;;;;;;;18.30;69.20;;;;;;5046875;28;42904;-81
2023/03/11 07:13:32;;;;;;;;;;;18.20;69.00;;;;;;5042594;28;42968;-83
2023/03/11 07:16:05;;;;;;;;;;;18.20;69.10;;;;;;5034187;28;42944;-83
2023/03/11 07:18:31;;;;;;;;;;;17.90;68.00;;;;;;5025580;28;43177;-83
2023/03/11 07:20:57;;;;;;;;;;;18.10;68.90;;;;;;5025577;28;43226;-82
2023/03/11 07:23:22;;;;;;;;;;;18.00;69.70;;;;;;5026162;28;42755;-83
2023/03/11 07:25:48;;;;;;;;;;;18.20;69.70;;;;;;5026590;28;43185;-90
2023/03/11 07:28:13;;;;;;;;;;;18.10;69.00;;;;;;5027233;28;43668;-91
2023/03/11 07:30:39;;;;;;;;;;;18.00;70.30;;;;;;5102840;22;43058;-92
2023/03/11 07:33:05;;;;;;;;;;;18.00;69.40;;;;;;5087429;28;43224;-90
2023/03/11 07:35:30;;;;;;;;;;;18.10;69.40;;;;;;5087433;28;43051;-86
2023/03/11 07:37:56;;;;;;;;;;;18.10;70.00;;;;;;5085908;28;42828;-91
2023/03/11 07:40:21;;;;;;;;;;;18.00;69.40;;;;;;5081233;27;43162;-86
2023/03/11 07:42:47;;;;;;;;;;;18.00;69.40;;;;;;5072642;28;42860;-82
2023/03/11 07:45:12;;;;;;;;;;;18.20;68.90;;;;;;5074255;28;42991;-91
2023/03/11 07:47:38;;;;;;;;;;;18.00;68.70;;;;;;5055871;28;43861;-91
2023/03/11 07:50:04;;;;;;;;;;;18.20;68.60;;;;;;5085388;28;43092;-92
2023/03/11 07:52:30;;;;;;;;;;;18.10;68.40;;;;;;5087490;27;42920;-92
2023/03/11 07:54:55;;;;;;;;;;;18.10;67.80;;;;;;5078048;27;42891;-81
2023/03/11 07:57:21;;;;;;;;;;;18.00;68.40;;;;;;5074680;27;44274;-83
2023/03/11 07:59:46;;;;;;;;;;;18.10;67.20;;;;;;5085829;27;42950;-85
2023/03/11 08:02:12;;;;;;;;;;;18.20;66.40;;;;;;5093152;27;43116;-81
2023/03/11 08:04:38;;;;;;;;;;;18.00;64.80;;;;;;5097551;27;43444;-81
2023/03/11 08:07:03;;;;;;;;;;;18.00;64.50;;;;;;5094422;28;43048;-86
2023/03/11 08:09:29;;;;;;;;;;;17.90;64.10;;;;;;5080635;27;43093;-90
2023/03/11 08:11:54;;;;;;;;;;;17.90;63.90;;;;;;5084706;28;43672;-90
2023/03/11 08:14:20;;;;;;;;;;;18.00;63.80;;;;;;5077433;27;43006;-86
2023/03/11 08:16:45;;;;;;;;;;;18.00;64.80;;;;;;5058025;28;44980;-84
2023/03/11 08:19:11;;;;;;;;;;;18.10;65.80;;;;;;5067426;27;42940;-82
2023/03/11 08:21:37;;;;;;;;;;;18.10;65.70;;;;;;5082899;28;43684;-82
2023/03/11 08:24:03;;;;;;;;;;;18.10;64.70;;;;;;5079234;28;42970;-82
2023/03/11 08:26:29;;;;;;;;;;;18.00;65.00;;;;;;5065743;27;43794;-91
2023/03/11 08:28:55;;;;;;;;;;;18.00;66.30;;;;;;5074199;28;43771;-93
2023/03/11 08:31:24;;;;;;;;;;;18.00;67.10;;;;;;5052125;28;44387;-89
2023/03/11 08:33:52;;;;;;;;;;;17.90;66.30;;;;;;5064623;28;43044;-91
2023/03/11 08:36:18;;;;;;;;;;;17.90;68.80;;;;;;5064320;28;43359;-94
2023/03/11 08:38:43;;;;;;;;;;;17.90;69.00;;;;;;5057697;28;43007;-82
2023/03/11 08:41:09;;;;;;;;;;;17.90;70.10;;;;;;5053645;28;43561;-85
2023/03/11 08:43:34;;;;;;;;;;;17.80;70.50;;;;;;5044187;28;43007;-80
2023/03/11 08:46:00;;;;;;;;;;;17.80;70.80;;;;;;5056097;28;44753;-90
2023/03/11 08:48:26;;;;;;;;;;;18.00;71.60;;;;;;5063564;28;43067;-91
2023/03/11 08:50:51;;;;;;;;;;;17.80;72.30;;;;;;5063216;28;43014;-87
2023/03/11 08:53:17;;;;;;;;;;;17.80;72.20;;;;;;5064246;28;43081;-89
2023/03/11 08:55:42;;;;;;;;;;;18.30;72.50;;;;;;5065183;28;43097;-87
2023/03/11 08:58:08;;;;;;;;;;;17.80;71.60;;;;;;5063576;28;43204;-88
2023/03/11 09:00:33;;;;;;;;;;;17.80;71.50;;;;;;5063167;28;43560;-90
2023/03/11 09:02:59;;;;;;;;;;;17.90;72.20;;;;;;5064086;28;43009;-89
2023/03/11 09:05:24;;;;;;;;;;;17.80;73.10;;;;;;5052196;28;43584;-88
2023/03/11 09:07:50;;;;;;;;;;;17.80;74.40;;;;;;5063934;28;43146;-87
2023/03/11 09:10:16;;;;;;;;;;;18.00;74.60;;;;;;5064463;28;42998;-89
2023/03/11 09:12:41;;;;;;;;;;;17.80;74.40;;;;;;5064027;28;42902;-90
2023/03/11 09:15:07;;;;;;;;;;;17.60;74.90;;;;;;5063717;28;43103;-88
2023/03/11 09:17:33;;;;;;;;;;;17.60;74.90;;;;;;5062216;28;43010;-89
2023/03/11 09:19:58;;;;;;;;;;;17.70;74.80;;;;;;5051587;28;45217;-79
2023/03/11 09:22:24;;;;;;;;;;;17.70;74.80;;;;;;5025066;28;43242;-89
2023/03/11 09:24:49;;;;;;;;;;;17.60;75.60;;;;;;5043769;28;43549;-92
2023/03/11 09:27:15;;;;;;;;;;;17.30;76.70;;;;;;5047877;28;43232;-89
2023/03/11 09:29:41;;;;;;;;;;;17.20;76.80;;;;;;5058069;28;42988;-90
2023/03/11 09:32:06;;;;;;;;;;;17.30;77.30;;;;;;5062664;28;43104;-89
2023/03/11 09:34:32;;;;;;;;;;;17.30;76.70;;;;;;5064376;28;43898;-90
2023/03/11 09:36:59;;;;;;;;;;;17.50;75.80;;;;;;5063778;28;42928;-88
2023/03/11 09:39:24;;;;;;;;;;;17.60;75.90;;;;;;5063920;28;43596;-89
2023/03/11 09:41:54;;;;;;;;;;;17.50;77.20;;;;;;5065463;28;42959;-90
2023/03/11 09:44:25;;;;;;;;;;;17.60;75.60;;;;;;5057618;28;43596;-88
2023/03/11 09:46:50;;;;;;;;;;;17.60;76.30;;;;;;5051106;28;42968;-87
2023/03/11 09:49:30;;;;;;;;;;;17.70;75.90;;;;;;5043536;28;43570;-84
2023/03/11 09:51:59;;;;;;;;;;;17.80;74.50;;;;;;5054120;28;43361;-84
2023/03/11 09:54:27;;;;;;;;;;;17.90;75.90;;;;;;5048640;28;42900;-82
2023/03/11 09:56:53;;;;;;;;;;;17.80;75.40;;;;;;5053252;28;42986;-83
2023/03/11 09:59:29;;;;;;;;;;;17.80;76.00;;;;;;5057167;28;43194;-85
2023/03/11 10:01:54;;;;;;;;;;;17.80;74.90;;;;;;5051955;28;43222;-84
2023/03/11 10:04:26;;;;;;;;;;;17.90;75.60;;;;;;5051915;28;43085;-84
2023/03/11 10:06:52;;;;;;;;;;;17.80;74.90;;;;;;5046809;28;43489;-84
2023/03/11 10:09:36;;;;;;;;;;;17.90;76.00;;;;;;5058274;28;43081;-83
2023/03/11 10:12:09;;;;;;;;;;;17.80;75.30;;;;;;5063425;28;42990;-84
2023/03/11 10:14:49;;;;;;;;;;;18.00;77.10;;;;;;5063595;28;44552;-80
2023/03/11 10:17:26;;;;;;;;;;;17.80;75.90;;;;;;5064344;28;42957;-83
2023/03/11 10:20:00;;;;;;;;;;;17.80;77.00;;;;;;5062477;28;43380;-83
2023/03/11 10:22:35;;;;;;;;;;;17.90;75.80;;;;;;5063613;28;42974;-85
2023/03/11 10:25:09;;;;;;;;;;;17.80;75.90;;;;;;5064111;28;43960;-86
2023/03/11 10:27:39;;;;;;;;;;;17.90;76.00;;;;;;5064432;28;43016;-83
2023/03/11 10:30:11;;;;;;;;;;;17.80;77.50;;;;;;5065079;28;42917;-83
2023/03/11 10:32:41;;;;;;;;;;;17.70;77.20;;;;;;5084544;28;42922;-86
2023/03/11 10:35:10;;;;;;;;;;;17.80;76.40;;;;;;5065774;28;45714;-85
2023/03/11 10:37:41;;;;;;;;;;;17.80;76.20;;;;;;5083925;28;42954;-85
2023/03/11 10:40:14;;;;;;;;;;;17.70;76.10;;;;;;5084517;28;42958;-83
2023/03/11 10:42:41;;;;;;;;;;;17.70;77.10;;;;;;5066687;28;43015;-86
2023/03/11 10:45:11;;;;;;;;;;;17.80;77.10;;;;;;5083819;28;42934;-84
2023/03/11 10:47:36;;;;;;;;;;;17.80;77.20;;;;;;5065584;28;42961;-83
2023/03/11 10:50:02;;;;;;;;;;;17.70;78.00;;;;;;5084051;28;43636;-84
2023/03/11 10:52:27;;;;;;;;;;;17.70;77.40;;;;;;5084114;28;42910;-85
2023/03/11 10:55:01;;;;;;;;;;;17.90;77.60;;;;;;5065927;28;44495;-85
2023/03/11 10:57:27;;;;;;;;;;;18.00;76.10;;;;;;5084130;28;42847;-84
2023/03/11 10:59:53;;;;;;;;;;;18.10;76.90;;;;;;5075773;28;43053;-84
2023/03/11 11:02:25;;;;;;;;;;;18.20;76.70;;;;;;5073206;28;42910;-84
2023/03/11 11:05:05;;;;;;;;;;;18.00;75.80;;;;;;5078873;27;43498;-86
2023/03/11 11:07:36;;;;;;;;;;;18.10;75.90;;;;;;5084787;28;42983;-83
2023/03/11 11:10:10;;;;;;;;;;;17.80;75.80;;;;;;5064161;28;43171;-90
2023/03/11 11:12:36;;;;;;;;;;;18.00;76.20;;;;;;5080388;28;44221;-86
2023/03/11 11:15:01;;;;;;;;;;;17.90;76.80;;;;;;5086642;28;43219;-86
2023/03/11 11:17:31;;;;;;;;;;;17.80;77.60;;;;;;5086895;28;42970;-85
2023/03/11 11:19:58;;;;;;;;;;;18.00;76.10;;;;;;5068462;28;44016;-85
2023/03/11 11:22:24;;;;;;;;;;;17.60;77.00;;;;;;5085082;28;43243;-81
2023/03/11 11:24:51;;;;;;;;;;;17.80;77.10;;;;;;5086533;28;43237;-81
2023/03/11 11:27:24;;;;;;;;;;;17.80;77.00;;;;;;5076191;28;42919;-81
2023/03/11 11:30:19;;;;;;;;;;;17.90;75.60;;;;;;5086503;28;42903;-80
2023/03/11 11:32:45;;;;;;;;;;;18.00;75.60;;;;;;5065295;28;43020;-84
2023/03/11 11:35:14;;;;;;;;;;;18.00;76.80;;;;;;5072370;28;43443;-79
2023/03/11 11:38:06;;;;;;;;;;;18.20;76.80;;;;;;5066308;28;43570;-79
2023/03/11 11:40:32;;;;;;;;;;;18.10;75.40;;;;;;5063790;28;43697;-79
2023/03/11 11:43:04;;;;;;;;;;;17.80;76.20;;;;;;5066830;28;42977;-80
2023/03/11 11:45:44;;;;;;;;;;;18.00;75.70;;;;;;5067751;28;42942;-80
2023/03/11 11:48:21;;;;;;;;;;;18.10;76.10;;;;;;5067061;28;43046;-81
2023/03/11 11:51:07;;;;;;;;;;;18.10;75.70;;;;;;5065934;28;42886;-81
2023/03/11 11:53:52;;;;;;;;;;;18.10;76.70;;;;;;5066043;28;42943;-81
2023/03/11 11:56:17;;;;;;;;;;;18.10;75.40;;;;;;5048677;28;45320;-81
2023/03/11 11:58:43;;;;;;;;;;;18.00;76.90;;;;;;5074710;28;42927;-81
2023/03/11 12:01:11;;;;;;;;;;;18.00;76.60;;;;;;5079503;28;44422;-80
2023/03/11 12:03:42;;;;;;;;;;;18.20;75.50;;;;;;5073696;28;42946;-84
2023/03/11 12:06:14;;;;;;;;;;;18.20;75.80;;;;;;5068355;28;43545;-84
2023/03/11 12:08:52;;;;;;;;;;;18.10;77.00;;;;;;5047974;28;43164;-83
2023/03/11 12:11:22;;;;;;;;;;;18.20;75.70;;;;;;5067346;28;43735;-82
2023/03/11 12:14:06;;;;;;;;;;;18.10;76.90;;;;;;5085326;28;43019;-84
2023/03/11 12:16:45;;;;;;;;;;;18.20;75.40;;;;;;5083416;27;42991;-84
2023/03/11 12:19:10;;;;;;;;;;;18.20;75.40;;;;;;5086788;28;42822;-83
2023/03/11 12:21:42;;;;;;;;;;;18.30;76.60;;;;;;5086095;28;43410;-83
2023/03/11 12:24:26;;;;;;;;;;;18.00;75.10;;;;;;5083221;28;43053;-82
2023/03/11 12:26:52;;;;;;;;;;;18.10;75.30;;;;;;5072919;28;43704;-83
2023/03/11 12:29:37;;;;;;;;;;;18.10;76.70;;;;;;5047989;28;42928;-84
2023/03/11 12:32:02;;;;;;;;;;;18.10;75.00;;;;;;5068732;28;43000;-85
2023/03/11 12:34:30;;;;;;;;;;;18.20;75.80;;;;;;5079246;28;43156;-87
2023/03/11 12:36:59;;;;;;;;;;;18.30;75.80;;;;;;5048360;28;63563;-87
2023/03/11 12:39:32;;;;;;;;;;;18.20;75.90;;;;;;5065639;28;42924;-84
2023/03/11 12:42:10;;;;;;;;;;;18.20;74.20;;;;;;5066200;28;44041;-85
2023/03/11 12:44:36;;;;;;;;;;;18.20;74.40;;;;;;5066288;28;42905;-84
2023/03/11 12:47:01;;;;;;;;;;;18.30;76.00;;;;;;5066796;28;43180;-84
2023/03/11 12:49:47;;;;;;;;;;;18.30;76.00;;;;;;5046794;28;43002;-84
2023/03/11 12:52:12;;;;;;;;;;;18.20;75.70;;;;;;5065112;28;43547;-83
2023/03/11 12:54:39;;;;;;;;;;;18.30;75.30;;;;;;5063301;28;43123;-85
2023/03/11 12:57:17;;;;;;;;;;;18.20;75.60;;;;;;5066024;28;43677;-85
2023/03/11 12:59:49;;;;;;;;;;;18.30;74.60;;;;;;5064609;28;42949;-84
2023/03/11 13:02:20;;;;;;;;;;;18.30;74.60;;;;;;5074309;28;42995;-84
2023/03/11 13:04:54;;;;;;;;;;;18.70;74.30;;;;;;5085115;28;42986;-85
2023/03/11 13:07:26;;;;;;;;;;;18.30;73.90;;;;;;5083462;28;42959;-83
2023/03/11 13:10:11;;;;;;;;;;;18.50;73.60;;;;;;5083611;28;42902;-83
2023/03/11 13:12:44;;;;;;;;;;;18.30;73.30;;;;;;5084468;28;44098;-83
2023/03/11 13:15:21;;;;;;;;;;;18.40;73.60;;;;;;5076661;28;43043;-84
2023/03/11 13:17:59;;;;;;;;;;;18.40;73.70;;;;;;5084362;28;43870;-84
2023/03/11 13:20:40;;;;;;;;;;;18.30;73.60;;;;;;5083904;28;43164;-84
2023/03/11 13:23:11;;;;;;;;;;;18.20;73.50;;;;;;5086132;28;42945;-84
2023/03/11 13:25:46;;;;;;;;;;;18.50;73.70;;;;;;5085015;28;42967;-85
2023/03/11 13:28:23;;;;;;;;;;;18.90;73.50;;;;;;5082769;27;42927;-84
2023/03/11 13:30:55;;;;;;;;;;;18.40;73.20;;;;;;5081779;28;42927;-84
2023/03/11 13:33:20;;;;;;;;;;;18.10;72.70;;;;;;5071032;28;43437;-85
2023/03/11 13:35:58;;;;;;;;;;;18.60;74.30;;;;;;5084761;28;42862;-84
2023/03/11 13:38:32;;;;;;;;;;;18.60;72.90;;;;;;5064634;28;43617;-81
2023/03/11 13:40:59;;;;;;;;;;;18.40;72.80;;;;;;5065669;28;43169;-85
2023/03/11 13:43:25;;;;;;;;;;;18.40;73.90;;;;;;5046742;28;45959;-83
2023/03/11 13:45:56;;;;;;;;;;;18.30;74.00;;;;;;5081801;28;43067;-83
2023/03/11 13:48:29;;;;;;;;;;;18.50;72.60;;;;;;5077892;28;42962;-83
2023/03/11 13:50:59;;;;;;;;;;;18.60;72.70;;;;;;5074776;28;43022;-83
2023/03/11 13:53:28;;;;;;;;;;;18.50;72.70;;;;;;5080965;28;43125;-84
2023/03/11 13:58:43;;;;;;;;;;;18.20;72.30;;;;;;4986288;28;43338;-84
2023/03/11 14:01:13;;;;;;;;;;;18.50;73.20;;;;;;4982728;28;43097;-84
2023/03/11 14:03:40;;;;;;;;;;;18.40;73.30;;;;;;4997862;28;43615;-83
2023/03/11 14:06:07;;;;;;;;;;;18.30;73.60;;;;;;4996258;28;43190;-86
2023/03/11 14:21:16;;;;;;;;;;;18.40;71.90;;;;;;5022778;28;43103;-79
2023/03/11 14:23:43;;;;;;;;;;;18.40;73.20;;;;;;5015450;28;43590;-82
2023/03/11 14:26:19;;;;;;;;;;;18.40;74.00;;;;;;5056348;28;43121;-78
2023/03/11 14:28:58;;;;;;;;;;;18.50;72.50;;;;;;5047810;28;43123;-80
2023/03/11 14:31:28;;;;;;;;;;;18.40;72.20;;;;;;5023790;28;45055;-78
2023/03/11 14:34:24;;;;;;;;;;;18.40;73.90;;;;;;5057766;28;43541;-82
2023/03/11 14:36:53;;;;;;;;;;;18.40;72.70;;;;;;5031294;28;43842;-78